x

9410840 - Santa Monica Pier (icac1) Weather Station

7:54 - Wed 18th Jan 2017 All times are PST. -8 hours from GMT.

  • Wind
    11mph, 14mph gusts
  • Sea Temp 59°f
  • Aire Temp 55°f
  • Sea Pressure 1018.6mb
  • 9410840 - Santa Monica Pier
  • 9410840 - Santa Monica Pier

More Historic Weather Station data

Upgrade to MSW Pro to gain access to the past 30 days of data for over 8000 Wavebouys and Weather Stations around the globe.

Join Pro

Comparision Forecast

View Surf forecast
   
mié 01/18 7:54 11 14 mph 1018.6mb 59f 55f
7:48 9 14 mph - - -
7:42 10 13 mph 1018.9mb 59f 55f
7:36 8 10 mph 1019.1mb 59f 55f
7:30 8 9 mph 1019.3mb 59f 55f
7:24 7 8 mph 1019.5mb 59f 55f
7:18 6 7 mph 1019.6mb 59f 55f
7:12 3 5 mph 1019.6mb 59f 55f
7:06 2 3 mph 1019.7mb 59f 55f
7:00 1 2 mph 1019.9mb 59f 56f
6:54 2 3 mph 1020mb 59f 56f
6:48 3 8 mph 1020.1mb 59f 56f
6:42 8 10 mph 1020.4mb 59f 56f
6:36 8 9 mph 1020.6mb 59f 56f
6:30 9 10 mph 1020.6mb 59f 56f
6:24 8 10 mph 1020.6mb 59f 57f
6:18 7 9 mph 1020.6mb 59f 57f
6:12 8 9 mph 1020.5mb 59f 57f
6:06 9 10 mph 1020.5mb 59f 57f
6:00 10 11 mph 1020.6mb 59f 57f
5:54 11 15 mph 1020.6mb 59f 57f
5:48 13 17 mph - - -
5:42 15 16 mph 1020.7mb 59f 57f
5:36 15 17 mph 1020.6mb 59f 57f
5:30 15 16 mph 1020.6mb 59f -
5:24 15 16 mph 1020.5mb 59f 57f
5:18 14 16 mph - - -
5:12 13 14 mph 1020.2mb 59f 57f
5:06 14 16 mph 1020.1mb 59f 57f
5:00 15 16 mph 1020.2mb 59f 57f
4:54 14 16 mph 1020.3mb 59f 57f
4:48 14 16 mph - - -
4:42 13 14 mph 1020.1mb 59f 57f
4:36 14 16 mph 1020.2mb 59f 57f
4:30 14 15 mph 1020.1mb 59f 57f
4:24 13 14 mph 1020.1mb 59f 57f
4:18 11 15 mph 1020.1mb 59f 57f
4:12 13 15 mph 1020.1mb 59f 57f
4:06 14 16 mph 1020.2mb 59f 57f
4:00 14 15 mph 1020.4mb 59f 57f
3:54 13 14 mph 1020.4mb 59f 57f
3:48 13 14 mph - - -
3:42 13 15 mph 1020.5mb 59f 57f
3:36 14 15 mph 1020.4mb 59f 56f
3:30 11 14 mph 1020.4mb 59f -
3:24 11 15 mph 1020.5mb 59f 57f
3:18 14 15 mph 1020.6mb 59f 57f
3:12 14 15 mph 1020.7mb 59f 56f
3:06 13 15 mph 1020.7mb 59f 56f
3:00 14 15 mph 1020.8mb 59f -
2:54 13 15 mph 1020.8mb 59f 56f
2:48 14 16 mph - - -
2:42 14 15 mph 1020.8mb 59f 56f
2:36 14 15 mph 1020.7mb 59f 56f
2:30 14 15 mph 1020.6mb 59f 56f
2:24 11 13 mph 1020.3mb 59f 56f
2:18 11 13 mph 1020.2mb 59f 56f
2:12 10 11 mph 1020.1mb 59f 56f
2:06 8 10 mph 1019.9mb 59f 56f
2:00 8 9 mph 1019.8mb 59f -
1:54 8 9 mph 1019.8mb 59f 56f
1:48 8 9 mph - - -
1:42 8 9 mph 1019.8mb 59f 56f
1:36 8 9 mph 1019.8mb 59f 56f
1:30 9
mph
1020mb 59f 56f
1:24 8 9 mph 1020.2mb 59f 56f
1:18 7 9 mph 1020.3mb 59f 56f
1:12 8 9 mph 1020.3mb 59f 56f
1:06 7 8 mph 1020.3mb 59f 56f
1:00 7 8 mph 1020.4mb 59f 56f
12:54 6 7 mph 1020.4mb 59f 57f
12:48 6 7 mph 1020.4mb 59f 57f
12:42 6 7 mph 1020.5mb 58f 57f
12:36 6 7 mph 1020.5mb 58f 56f
12:30 6 7 mph 1020.6mb 58f 56f
12:24 6 7 mph 1020.7mb 58f 56f
12:18 5 6 mph 1020.7mb 58f 57f
12:12 3 5 mph 1020.7mb 58f 57f
12:06 3 6 mph 1020.9mb 58f 57f
12:00 5 6 mph 1021.1mb 58f 57f
11:54 5 6 mph 1021.1mb 58f 57f
11:48 3 6 mph 1021.2mb 58f 57f
11:42 5
mph
1021.3mb 58f 57f
11:36 3 5 mph 1021.5mb 58f 57f
11:30 2 3 mph 1021.5mb 58f 57f
11:24 2 5 mph 1021.7mb 58f 57f
11:18 5 6 mph 1021.8mb 58f 57f
11:12 5 6 mph 1021.8mb 58f 57f
11:00 5 6 mph 1022mb 58f 57f
10:54 5
mph
1022.1mb 58f 57f
10:48 3 5 mph 1022.2mb 58f 56f
10:42 3 5 mph 1022.4mb 58f 57f
10:36 3 5 mph 1022.5mb 58f 57f
10:30 3 5 mph 1022.5mb 58f 58f
10:24 5 6 mph 1022.6mb 58f 58f
10:18 6
mph
1022.7mb 58f 58f
10:12 3 5 mph 1022.9mb 58f 57f
10:06 3 5 mph 1023.1mb 58f 58f
10:00 3
mph
1023.1mb - -
9:54 2 3 mph 1023.2mb 58f 56f
9:48 5 6 mph 1023.2mb 58f 56f
9:42 5 6 mph 1023.1mb 58f 55f
9:36 5 6 mph 1023.1mb 58f 55f
9:30 5 6 mph 1023.1mb 58f 55f
9:24 3 6 mph 1023mb 58f 55f
9:18 5 8 mph 1022.8mb 58f 55f
9:12 6 8 mph 1022.6mb 58f 54f
9:06 5 7 mph 1022.7mb 58f 54f
9:00 7 9 mph 1022.8mb 58f 54f
8:54 7 8 mph 1022.9mb 58f 54f
8:48 6 10 mph 1022.8mb 58f 54f
8:42 8 9 mph 1022.8mb 58f 54f
8:36 7 9 mph 1022.8mb 58f 53f
8:30 7 9 mph 1022.6mb 58f 54f
8:24 6 8 mph 1022.6mb 58f 54f
8:18 5 6 mph 1022.6mb 58f 54f
8:12 3 6 mph 1022.5mb 58f 54f
8:06 3 6 mph 1022.6mb 58f 53f
8:00 6 7 mph 1022.5mb 58f 53f
7:54 6 7 mph 1022.5mb 58f 53f
7:48 6 8 mph 1022.6mb 58f 53f
7:42 6 7 mph 1022.5mb 58f 53f
7:36 6 7 mph 1022.4mb 58f 53f
7:30 5 6 mph 1022.5mb - -
7:24 5 7 mph 1022.6mb 58f 54f
7:18 6 8 mph 1022.5mb 58f 54f
7:12 7 9 mph 1022.4mb 58f 53f
7:06 7 8 mph 1022.4mb 58f 53f
7:00 7 8 mph 1022.3mb 58f 53f
6:54 8 9 mph 1022.2mb 58f 52f
6:48 7 9 mph 1022mb 58f 52f
6:42 8 10 mph 1021.8mb 58f 51f
6:36 7 8 mph 1021.8mb 58f 51f
6:30 7 9 mph 1021.8mb 58f 51f
6:24 8 9 mph 1021.6mb 58f 52f
6:18 7 9 mph 1021.7mb 58f 51f
6:12 7 8 mph 1021.7mb 58f 51f
6:06 8 9 mph 1021.7mb 58f 51f
6:00 7 8 mph 1021.8mb 58f -
5:54 6 8 mph 1021.8mb 58f 52f
5:48 6 9 mph 1021.7mb 58f 52f
5:42 8 9 mph 1021.7mb 58f 52f
5:36 8 9 mph 1021.6mb 58f 52f
5:30 8 10 mph 1021.4mb 58f 52f
5:24 9 10 mph 1021.3mb 58f 52f
5:18 9 11 mph 1021.3mb 58f 52f
5:12 10 11 mph 1021.2mb 58f 52f
5:06 9 10 mph 1021.1mb 58f 52f
5:00 9 10 mph 1020.9mb 58f 52f
4:54 8 11 mph 1020.8mb 58f 52f
4:48 9 11 mph 1020.9mb 58f 52f
4:42 8 11 mph 1021mb 58f 52f
4:36 10 11 mph 1021.1mb 58f 52f
4:30 9 11 mph 1021.1mb - -
4:24 9 10 mph 1021.1mb 58f 52f
4:18 8 10 mph 1021mb 58f 52f
4:12 7 10 mph 1020.9mb 59f 52f
4:06 8 10 mph 1020.9mb 59f 51f
4:00 8 10 mph 1021.2mb 59f 52f
3:54 8 9 mph 1021.5mb 59f 52f
3:48 8 9 mph 1021.5mb 59f 52f
3:42 7 9 mph 1021.5mb 59f 52f
3:36 8 10 mph 1021.4mb 59f 52f
3:30 8 9 mph - - -
3:24 8 10 mph 1021.3mb 59f 51f
3:18 9 10 mph 1021.3mb 59f 52f
3:12 7 9 mph 1021.3mb 59f 52f
3:06 8 9 mph 1021.5mb 59f 52f
3:00 7 9 mph 1021.6mb - -
2:54 8 9 mph 1021.5mb 59f 52f
2:48 9 10 mph 1021.4mb 59f 52f
2:42 7 10 mph 1021.4mb 59f 52f
2:36 8 10 mph 1021.3mb 59f 51f
2:30 8 9 mph 1021.2mb 59f 51f
2:24 7 10 mph 1021.2mb 59f 52f
2:18 9 10 mph 1021.2mb 59f 52f
2:12 9 10 mph 1021.1mb 59f 52f
2:06 9 10 mph 1020.9mb 59f 52f
2:00 9 10 mph 1020.9mb 59f 52f
1:54 10 11 mph 1020.9mb 59f 52f
1:48 9 10 mph 1020.9mb 59f 52f
1:42 8 10 mph 1020.9mb 59f 52f
1:36 9 10 mph 1021mb 59f 53f
1:30 9 10 mph 1021.1mb 59f 53f
1:24 9 10 mph 1021mb 59f 53f
1:18 8 9 mph 1021mb 59f 53f
1:12 8 10 mph 1020.9mb 59f 53f
1:06 9
mph
1020.9mb 59f 53f
1:00 7 9 mph 1020.9mb 59f 52f
12:54 8 9 mph 1020.9mb 59f 53f
12:48 8 9 mph 1021mb 59f 53f
12:42 8 9 mph 1021.2mb 59f 53f
12:36 8 9 mph 1021.2mb 59f 53f
12:30 7 8 mph - - -
12:24 6 8 mph 1021.4mb 59f 53f
12:18 7 8 mph 1021.3mb 59f 54f
12:12 6 7 mph 1021.5mb 59f 54f
12:06 6
mph
1021.7mb 59f 53f
12:00 6 7 mph 1021.8mb - -
mar 01/17 11:54 6 8 mph 1021.7mb 59f 53f
11:48 6 7 mph 1021.6mb 59f 53f
11:42 6 7 mph 1021.7mb 59f 53f
11:36 6 8 mph 1021.6mb 59f 53f
11:30 7
mph
1021.6mb 59f 53f
11:24 6
mph
1021.6mb 59f 53f
11:18 5 6 mph 1021.7mb 59f 53f
11:12 3 5 mph 1021.6mb 59f 54f
11:06 3 5 mph 1021.6mb 59f 53f
11:00 3 5 mph 1021.6mb - -
10:54 3
mph
1021.6mb 59f 55f
10:48 3
mph
1021.6mb 59f 55f
10:42 2 6 mph 1021.6mb 59f 56f
10:36 5 7 mph 1021.6mb 59f 56f
10:30 8 9 mph 1021.6mb - -
10:24 8 9 mph 1021.6mb 59f 57f
10:18 8 9 mph 1021.5mb 59f 57f
10:12 3 7 mph 1021.4mb 59f 57f
10:06 2 3 mph 1021.4mb 59f 56f
9:54 3
mph
1021.3mb 59f -
9:48 3 6 mph 1021.2mb 59f 55f
9:42 5 6 mph 1021.2mb 59f 55f
9:36 6 7 mph 1021.2mb 59f 55f
9:30 6 7 mph 1021.2mb 59f 55f
9:24 5 6 mph 1021.1mb 59f 56f
9:18  -  2 mph 1020.9mb 59f 55f
9:12 1 2 mph 1020.8mb 59f 55f
9:06 1 3 mph 1020.7mb 59f 55f
9:00 3 5 mph 1020.8mb 59f 55f
8:54 5 6 mph 1020.8mb 59f 55f
8:48 5 6 mph 1020.7mb 59f 55f
8:42 3 5 mph 1020.6mb 59f 55f
8:36  -  1 mph 1020.5mb 59f 55f
8:30 1 5 mph 1020.3mb 59f 56f
8:24 5
mph
1020.3mb 59f 56f
8:18 2 3 mph 1020.3mb 59f 56f
8:12 3 5 mph 1020.2mb 59f 56f
8:06 3 5 mph 1020.1mb 59f 56f
8:00 3 5 mph 1020mb 59f 56f
7:54 3 5 mph 1019.9mb 59f 56f
7:48 3 5 mph 1020mb 59f 56f
7:42 3 5 mph 1019.9mb 59f 57f
7:36  -  2 mph 1020mb 59f 57f
7:30 1 2 mph 1020.1mb 59f 57f
7:24 2 3 mph 1020.1mb 59f 57f
7:18 2 7 mph 1020mb 59f 57f
7:12 5 10 mph 1020mb 59f 57f
7:06 10 13 mph 1020.1mb 59f 58f
7:00 11 14 mph 1020.2mb 59f -
6:54 10
mph
1020.3mb 59f 58f
6:48 9 10 mph 1020.2mb 59f 58f
6:42 9 11 mph 1020.3mb 59f 58f
6:36 11
mph
1020.2mb 59f 58f
6:30 10 11 mph 1020.3mb 59f 58f
6:24 10 11 mph 1020.4mb 59f 58f
6:18 9
mph
1020.3mb 59f 58f
6:12 9 10 mph 1020.3mb 59f 58f
6:06 10 11 mph 1020.3mb 59f 58f
6:00 10 11 mph 1020.3mb 59f -
5:54 9 11 mph 1020.2mb 60f 58f
5:48 8 10 mph 1020mb 60f -
5:42 9 11 mph 1020mb 60f 58f
5:36 9 10 mph 1019.8mb 60f 58f
5:30 10 11 mph 1019.7mb 60f -
5:24 9 10 mph 1019.6mb 60f 58f
5:18 9 10 mph 1019.6mb 60f 58f
5:12 10 11 mph 1019.6mb 59f 58f
5:06 11
mph
1019.6mb 59f 58f
5:00 10 11 mph 1019.6mb 59f 58f
4:54 10 11 mph 1019.6mb 59f 58f
4:48 10 11 mph 1019.5mb 59f 58f
4:42 9 10 mph 1019.4mb 60f 58f
4:36 10 11 mph 1019.2mb 60f 58f
4:30 9 10 mph 1019.2mb 60f 58f
4:24 10 11 mph 1019.3mb 60f 58f
4:18 10 13 mph 1019.4mb 60f -
4:12 13 14 mph 1019.3mb 60f 58f
4:06 11 13 mph 1019.2mb 60f 58f
4:00 10 11 mph 1019mb 60f 58f
3:54 8 9 mph 1018.9mb 60f 59f
3:48 8 11 mph 1018.9mb 60f 59f
3:42 9 10 mph 1019mb 60f 59f
3:36 9 10 mph 1018.9mb 60f 59f
3:30 8 10 mph 1019mb 60f -
3:24 8 10 mph 1019mb 59f 59f
3:18 10
mph
1019.1mb 59f 59f
3:12 9 11 mph 1019.1mb 59f 59f
3:06 8 11 mph 1019.1mb 59f 59f
3:00 9 11 mph 1019.2mb 59f 59f
2:54 10 11 mph 1019.2mb 59f 59f
2:48 9 10 mph 1019.2mb 59f 59f
2:42 8 10 mph 1019.2mb 59f 60f
2:36 10
mph
1019.2mb 59f 59f
2:30 10 11 mph 1019.3mb 59f 59f
2:24 10 11 mph 1019.3mb 59f 59f
2:18 9 10 mph 1019.3mb 59f 59f
2:12 8 9 mph 1019.2mb 59f 59f
2:06 9 10 mph 1019.2mb 59f 59f
2:00 9 10 mph 1019.2mb 59f 59f
1:54 9
mph
1019.2mb 59f 59f
1:48 8 11 mph 1019.2mb 59f 59f
1:42 10 11 mph 1019.3mb 59f 59f
1:36 10 11 mph 1019.4mb 59f 59f
1:30 10 11 mph 1019.4mb 59f 59f
1:24 10 11 mph 1019.5mb 59f 59f
1:18 10 11 mph 1019.5mb 59f 59f
1:12 10 11 mph 1019.4mb 59f 59f
1:06 10 11 mph 1019.5mb 59f 59f
1:00 10 11 mph 1019.5mb 59f 59f
12:54 11 13 mph 1019.5mb 59f 59f
12:48 11
mph
1019.5mb 59f 59f
12:42 10
mph
1019.4mb 59f 59f
12:36 9 10 mph 1019.4mb 59f 59f
12:30 9 10 mph 1019.3mb 59f 59f
12:24 9
mph
1019.3mb 59f 59f
12:18 8 9 mph 1019.2mb 59f 59f
12:12 8
mph
1019.3mb 59f 59f
12:06 8 9 mph 1019.4mb 59f 59f
12:00 9
mph
1019.4mb 58f 59f
11:54 8
mph
1019.4mb 58f 59f
11:48 7 8 mph 1019.5mb 58f 60f
11:42 7 8 mph 1019.5mb 58f 60f
11:36 7
mph
1019.6mb 58f 60f
11:30 7
mph
1019.5mb 58f 60f
11:24 6 7 mph 1019.6mb 58f 61f
11:18 6 7 mph 1019.7mb 58f 61f
11:12 6
mph
1019.8mb 58f 61f
11:06 3 7 mph 1019.9mb 58f 62f
11:00 5 7 mph 1020mb 58f 63f
10:54 6 8 mph 1020.1mb 58f 63f
10:48 7
mph
1020.1mb 58f 62f
10:42 6 8 mph 1020.1mb 58f 62f
10:36 7 10 mph 1020.2mb 58f 61f
10:30 6 9 mph 1020.2mb 58f 61f
10:24 6 10 mph 1020.1mb 58f 61f
10:18 8 11 mph 1020.1mb 58f 60f
10:12 7 9 mph 1020.1mb 58f 60f
10:06 6 9 mph 1020.1mb 58f 60f
10:00 7 9 mph 1020.2mb 58f 60f
9:54 9 13 mph 1020.2mb 58f 60f
9:48 11 14 mph 1020.1mb 58f 59f
9:42 8 10 mph 1020.1mb 58f 59f
9:36 8 10 mph 1020.1mb 58f 59f
9:30 10 14 mph 1020.1mb 58f 59f
9:24 9 13 mph 1020mb 58f 59f
9:18 7 11 mph 1020.1mb 58f 59f
9:12 7 10 mph 1020.1mb 58f 58f
9:06 9 11 mph 1020mb 58f 58f
9:00 7 10 mph 1020mb 58f 58f
8:54 7 10 mph 1020.1mb 58f 57f
8:48 7 9 mph 1020.1mb 58f 57f
8:42 7 9 mph 1020.1mb 58f 57f
8:36 7 9 mph 1020.1mb 58f 56f
8:30 7 9 mph 1020mb 58f 56f
8:24 6 7 mph 1019.9mb 58f 55f
8:18 6 8 mph 1019.9mb 58f 55f
8:12 7 8 mph 1019.9mb 58f 54f
8:06 6 8 mph 1019.9mb 58f 53f
8:00 7 8 mph 1020mb 58f 54f
7:54 8 9 mph 1020mb 58f 53f
7:48 6 8 mph 1019.9mb - -
7:42 6 8 mph 1019.8mb 58f 52f
7:36 7 9 mph 1019.7mb 58f 51f
7:30 7 9 mph 1019.6mb 58f 51f
7:24 7 9 mph 1019.5mb 58f 51f
7:18 6 8 mph 1019.5mb 58f 51f
7:12 5 9 mph 1019.4mb 58f 50f
7:06 7 9 mph 1019.3mb 58f 50f
7:00 6 9 mph 1019.2mb 58f -
6:54 7 9 mph 1019.1mb 58f 51f
6:48 7 9 mph 1019mb 58f 50f
6:42 6 8 mph 1018.9mb 58f 51f
6:36 6 8 mph 1018.9mb 58f 55f
6:30 6 7 mph 1018.8mb 58f 53f
6:24 5 6 mph 1018.8mb 58f 53f
6:18 5 6 mph 1018.7mb 58f 54f
6:12 5 6 mph 1018.7mb 58f 53f
6:06 3 6 mph 1018.6mb 58f 52f
6:00 3 5 mph 1018.6mb 58f 53f
5:54 3 5 mph 1018.5mb 58f 53f
5:48 3
mph
1018.5mb 58f 52f
5:42 2
mph
1018.5mb 58f 52f
5:36 2
mph
1018.5mb 58f 52f
5:30 2
mph
1018.4mb 58f 51f
5:24 1 2 mph 1018.4mb 58f 51f
5:18  -  2 mph 1018.4mb 58f 51f
5:12  -  1 mph 1018.5mb 58f 52f
5:06 1 3 mph 1018.5mb 58f 52f
5:00 1 3 mph 1018.5mb 58f 51f
4:54 3 5 mph 1018.5mb 58f 51f
4:48 2 3 mph 1018.4mb 58f 52f
4:42 3 6 mph 1018.3mb 59f 52f
4:36 5 6 mph 1018.2mb 59f 52f
4:30 3 5 mph 1018.2mb 59f 52f
4:24 2 5 mph 1018.3mb 59f 52f
4:18 3 5 mph 1018.3mb 59f 52f
4:12 2 3 mph 1018.3mb 59f 52f
4:06 2 6 mph 1018.3mb 59f 53f
4:00 3 6 mph 1018.2mb 59f 53f
3:54 2 3 mph 1018.2mb 59f 53f
3:48 3 6 mph 1018.2mb 59f 53f
3:42 3 5 mph 1018.3mb 59f 54f
3:36 5
mph
1018.2mb 59f 55f
3:30 3
mph
1018.1mb 59f 55f
3:24 2
mph
1018.1mb 59f 55f
3:18 3
mph
1018.1mb 59f 55f
3:12 2 3 mph 1018mb 59f 54f
3:06 2
mph
1018mb 59f 54f
3:00  -  1 mph 1017.9mb 59f 54f
2:54  -  2 mph 1018mb 59f 54f
2:48 2 5 mph 1018mb - -
2:42 2 5 mph 1017.9mb 59f 53f
2:36 5 6 mph 1017.9mb 59f 53f
2:30  -  2 mph 1017.9mb 59f 53f
2:24  -  1 mph 1017.9mb 59f 54f
2:18  -  2 mph 1017.8mb 59f 54f
2:12 2 5 mph 1017.9mb 59f 55f
2:06 3
mph
1017.8mb 59f 55f
2:00 3 6 mph 1017.8mb 59f 55f
1:54 3 5 mph 1017.9mb 59f 55f
1:48 5
mph
1017.8mb 59f 55f
1:42 3 5 mph 1017.9mb 59f 55f
1:36 3 5 mph 1017.8mb 59f 56f
1:30 3
mph
1017.8mb 59f 55f
1:24 3 5 mph 1017.8mb 59f 55f
1:18 3 6 mph 1017.8mb - -
1:12 3 5 mph 1017.8mb 59f 53f
1:06 2 5 mph 1017.8mb 59f 53f
1:00 2 8 mph 1017.9mb 59f 54f
12:54 6
mph
1017.9mb 59f 54f
12:48 5 7 mph 1018mb 59f 54f
12:42 6 7 mph 1018mb 59f 54f
12:36 6
mph
1018mb 59f 54f
12:30 5 6 mph 1018.1mb 59f 53f
12:24 5 7 mph 1018.2mb 59f 53f
12:18 6 7 mph 1018.3mb 59f 53f
12:12 6 7 mph 1018.3mb 59f 53f
12:06 7 8 mph 1018.4mb 59f 54f
12:00 6 7 mph 1018.4mb 59f 54f
lun 01/16 11:54 6 7 mph 1018.4mb 59f 54f
11:48 6 7 mph 1018.6mb 59f -
11:42 6
mph
1018.6mb 59f 55f
11:36 6 7 mph 1018.6mb 59f 56f
11:30 6 7 mph 1018.6mb 59f 55f
11:24 6 7 mph 1018.7mb 59f 54f
11:18 6 8 mph 1018.6mb 59f 54f
11:12 6 7 mph 1018.6mb 59f 53f
11:06 6 7 mph 1018.6mb 59f 54f
11:00 3 5 mph 1018.5mb 59f 54f
10:54 5 6 mph 1018.5mb 59f 55f
10:48 3 5 mph 1018.4mb 59f 55f
10:42 3 7 mph 1018.4mb - -
10:36 6 8 mph 1018.3mb - -
10:30 6 8 mph 1018.2mb - -
10:24 6 8 mph 1018.2mb 59f 55f
10:18 6 8 mph 1018.2mb 59f 55f
10:12 6 8 mph 1018.3mb 59f 55f
10:06 7 9 mph 1018.3mb 59f 55f
10:00 8 9 mph 1018.3mb 59f 55f
9:54 6 9 mph 1018.3mb 59f 55f
9:48 7 8 mph 1018.3mb 59f 55f
9:42 6 8 mph - - -
9:36 7 9 mph - - -
9:30 7 9 mph 1018.2mb 59f 56f
9:24 7 10 mph 1018.1mb 59f 56f
9:18 7 9 mph 1018.1mb 59f 56f
9:12 8 11 mph 1018.1mb 59f 56f
9:06 7 10 mph 1018.1mb 59f 56f
9:00 7 10 mph 1018.1mb 59f 56f
8:54 8 9 mph 1018.1mb 59f 56f
8:48 7 8 mph 1018mb 59f 56f
8:42 3 6 mph 1018mb 59f 56f
8:36 5 6 mph 1017.9mb 59f 56f
8:30 2 5 mph 1017.9mb - -
8:24 3 6 mph 1017.8mb 60f 56f
8:18 5 8 mph 1017.6mb 60f 56f
8:12 8 10 mph 1017.5mb 60f 56f
8:06 8 11 mph 1017.4mb 60f 56f
8:00 7 10 mph 1017.3mb 60f 56f
7:54 8 11 mph 1017.3mb 60f 57f
7:48 7 10 mph 1017.3mb 60f 57f
7:42 7 10 mph 1017.3mb 60f 57f
7:36 7 9 mph 1017.3mb 60f 57f
7:30 7 9 mph 1017.3mb 60f 56f
7:24 7 9 mph 1017.3mb 60f 57f
7:18 7 9 mph 1017.2mb 60f 57f
7:12 6 8 mph 1017.3mb 60f 56f
7:06 5 7 mph 1017.3mb 60f 57f
7:00 5 6 mph 1017.3mb 60f 57f
6:54 1 3 mph 1017.3mb 60f 57f
6:48  -  6 mph 1017.3mb 60f 58f
6:42 5 8 mph 1017.2mb 60f 58f
6:36 6 8 mph 1017.2mb 60f 58f
6:30 7 11 mph 1017.1mb 60f 58f
6:24 10 11 mph 1017.1mb 60f 58f
6:18 10 11 mph 1017.1mb 60f 58f
6:12 10 13 mph 1017.2mb 60f 58f
6:06 13 15 mph 1017.2mb 60f 58f
6:00 14 16 mph 1017.2mb 60f 58f
5:54 15 17 mph 1017.2mb 60f 58f
5:48 15 17 mph 1017.1mb 60f 58f
5:42 14 17 mph 1017.1mb 60f 58f
5:36 14 16 mph 1017.1mb 60f 58f
5:30 14 16 mph 1017.1mb 60f 58f
5:24 14 15 mph 1017.1mb 60f 58f
5:18 14 15 mph - - -
5:12 14 15 mph 1017.1mb 60f 58f
5:06 14 17 mph 1017.1mb 60f 58f
5:00 16 17 mph 1017.1mb - -
4:54 15 17 mph 1017.1mb - 58f
4:48 16 17 mph 1017mb - 58f
4:42 15 16 mph 1017mb 60f 58f
4:36 14 15 mph 1017mb 60f 58f
4:30 13 15 mph 1017mb 60f 58f
4:24 14 16 mph 1017mb 60f 58f
4:18 14 16 mph 1017mb 60f 58f
4:12 14 15 mph 1017mb 60f 58f
4:06 13 15 mph 1017mb 60f 58f
4:00 14 16 mph 1017mb 60f 58f
3:54 15 17 mph 1017mb 60f 58f
3:48 14 16 mph 1017mb 60f -
3:42 14 16 mph 1017mb 60f 58f
3:36 14 15 mph 1016.9mb 60f 58f
3:30 13 15 mph 1017mb 60f 58f
3:24 13 15 mph 1017mb 60f 58f
3:18 11 14 mph 1017mb 60f 58f
3:12 13 14 mph 1017mb 60f 58f
3:06 13 14 mph 1017mb 60f 58f
3:00 13 15 mph 1017mb 60f -
2:54 13 14 mph 1017mb 60f 58f
2:48 11 13 mph 1017mb 60f 58f
2:42 11 13 mph 1017mb 59f 58f
2:36 11 13 mph 1017mb 60f 58f
2:30 11 13 mph 1017.1mb 60f 58f
2:24 11 13 mph 1017.2mb 59f 58f
2:18 11
mph
1017.2mb 59f 58f
2:12 11 13 mph 1017.2mb 59f 58f
2:06 10 11 mph 1017.2mb 59f 58f
2:00 11 13 mph 1017.2mb 59f 58f
1:54 11 13 mph 1017.3mb 59f 58f
1:48 13 14 mph - - -
1:42 13
mph
1017.3mb 59f 58f
1:36 10 11 mph 1017.4mb 59f 58f
1:30 11 13 mph 1017.5mb 59f 58f
1:24 10
mph
1017.4mb 59f 58f
1:18 9 10 mph 1017.4mb 59f 58f
1:12 9 10 mph 1017.5mb 59f 58f
1:06 8 9 mph 1017.6mb 59f 58f
1:00 9 10 mph 1017.6mb 59f 58f
12:54 9
mph
1017.7mb 59f 58f
12:48 8 9 mph 1017.7mb 59f 58f
12:42 8 9 mph 1017.6mb 59f 58f
12:36 8 9 mph 1017.7mb 59f 58f
12:30 7 8 mph 1017.8mb 59f 58f
12:24 7 8 mph 1017.9mb 59f 58f
12:18 7
mph
1018mb 59f 58f
12:12 6
mph
1018.1mb 59f 58f
12:06 5 6 mph 1018.2mb 59f 58f
12:00 6
mph
1018.3mb 59f 58f
11:54 6
mph
1018.4mb 59f 58f
11:48 5 6 mph 1018.6mb 59f 58f
11:42 5 6 mph 1018.7mb 59f 58f
11:36 5
mph
1018.9mb 59f 58f
11:30 5
mph
1019mb 59f 58f
11:24 3 5 mph 1019.1mb 59f 58f
11:18 3
mph
1019.3mb 59f 58f
11:12 3 5 mph 1019.3mb 59f 58f
11:06 3
mph
1019.4mb 59f 58f
11:00 3 5 mph 1019.5mb 59f 57f
10:54 3 5 mph 1019.5mb 59f 57f
10:48 5 6 mph 1019.5mb 59f 57f
10:42 5
mph
1019.6mb 59f 57f
10:36 5
mph
1019.7mb 58f 57f
10:30 5
mph
1019.7mb 58f 57f
10:24 3 5 mph 1019.8mb 58f 57f
10:18 5
mph
1019.8mb 58f 57f
10:12 5 6 mph 1019.9mb 58f 57f
10:06 3 5 mph 1019.9mb 58f 58f
10:00 1 2 mph 1019.9mb 58f 58f
9:54 2
mph
1019.9mb 58f 58f
9:48 2 3 mph 1019.9mb 58f -
9:42 2 3 mph 1019.8mb 58f 58f
9:36 1 2 mph 1019.8mb 58f 58f
9:30 1 2 mph 1019.8mb 58f 58f
9:24 1 2 mph 1019.7mb 58f 58f
9:18  -  1 mph 1019.7mb 58f 59f
9:12  -  1 mph 1019.7mb 58f 59f
9:06  -  1 mph 1019.6mb 58f 58f
9:00  -  2 mph 1019.6mb 58f 58f
8:54 2
mph
1019.6mb 58f 57f
8:48  -  2 mph 1019.6mb 58f 57f
8:42  -  2 mph 1019.5mb 58f 56f
8:36 2 3 mph 1019.5mb 58f 56f
8:30 3
mph
1019.5mb 58f 55f
8:24 3
mph
1019.4mb 59f 55f
8:18 2 3 mph 1019.4mb 59f 55f
8:12 3 5 mph 1019.3mb 59f 55f
8:06 5 6 mph 1019.2mb 59f 54f
8:00 3 5 mph 1019.2mb 59f 54f
7:54 5 6 mph 1019.2mb 59f 54f
7:48 2 3 mph 1019.1mb 59f 54f
7:42 2 5 mph 1019mb 59f 54f
7:36 3 5 mph 1018.9mb 59f 54f
7:30 2 5 mph 1018.9mb 59f 54f
7:24 3 5 mph 1018.9mb 59f 54f
7:18 3
mph
1018.7mb 59f 54f
7:12 2 3 mph 1018.6mb 59f 54f
7:06 3
mph
1018.6mb 59f 54f
7:00 3
mph
1018.6mb 59f 54f
6:54 2 3 mph 1018.6mb 59f 54f
6:48 1
mph
1018.5mb 59f 54f
6:42  -  1 mph 1018.5mb 59f 54f
6:36  -  3 mph 1018.4mb 59f 54f
6:30 2 5 mph 1018.3mb 59f 55f
6:24 3 6 mph 1018.2mb 59f 55f
6:18 6
mph
1018.1mb 59f 55f
6:12 6 7 mph 1017.9mb 59f 55f
6:06 6 8 mph 1017.9mb 59f 54f
6:00 6 7 mph 1017.9mb 59f 55f
5:54 6 8 mph 1017.8mb 59f 55f
5:48 6 7 mph 1017.7mb 59f 54f
5:42 5 6 mph 1017.7mb 59f 54f
5:36 5 7 mph 1017.6mb 59f 54f
5:30 6 7 mph 1017.6mb 59f 54f
5:24 7 8 mph 1017.6mb 59f 54f
5:18 6 7 mph 1017.6mb 59f 54f
5:12 5 6 mph 1017.6mb 59f 54f
5:06 5 6 mph 1017.6mb 59f 54f
5:00 5 6 mph 1017.7mb 59f 54f
4:54 3 6 mph 1017.7mb 59f 54f
4:48 2 5 mph 1017.6mb 59f 54f
4:42 5 6 mph 1017.7mb 59f 54f
4:36 3
mph
1017.6mb 59f 54f
4:30 3
mph
1017.6mb 59f 55f
4:24 3
mph
1017.5mb 59f 55f
4:18 3
mph
1017.4mb 59f 55f
4:12 3 5 mph 1017.5mb 59f 55f
4:06 3 5 mph 1017.5mb 59f 55f
4:00 3 5 mph 1017.5mb 59f 55f
3:54 3 5 mph 1017.5mb 59f 55f
3:48 3 6 mph 1017.5mb 59f 55f
3:42 5 6 mph 1017.4mb 59f 55f
3:36 5 6 mph 1017.3mb 59f 55f
3:30 5 6 mph 1017.4mb 59f 55f
3:24 6 7 mph 1017.5mb 59f 55f
3:18 5 6 mph 1017.5mb 59f 55f
3:12 5 6 mph 1017.6mb 59f 55f
3:06 5 6 mph 1017.7mb 59f 56f
3:00 5 6 mph 1017.8mb 59f 56f
2:54 3 5 mph 1017.7mb 59f 56f
2:48 3 5 mph 1017.8mb 59f 56f
2:42 2 3 mph 1017.9mb 59f 56f
2:36 2 3 mph 1017.9mb 59f 56f
2:30 1 3 mph 1018.1mb 59f 56f
2:24  -  3 mph 1018.2mb 59f 56f
2:18 1 3 mph 1018.3mb 59f 56f
2:12 1 2 mph 1018.3mb 59f 56f
2:06 1 2 mph 1018.3mb 59f 56f
2:00 1 2 mph 1018.2mb 59f 56f
1:54 1 3 mph 1018.2mb 59f 56f
1:48 2 3 mph 1018.2mb 59f 56f
1:42 2 3 mph 1018.2mb 59f 56f
1:36 3 5 mph 1018.2mb 59f 56f
1:30 3
mph
1018.2mb 59f 56f
1:24 3
mph
1018.2mb 59f 56f
1:18 2 3 mph 1018.2mb 59f 56f
1:12 3 5 mph 1018.1mb 59f 56f
1:06 3
mph
1018.2mb 59f 56f
1:00 2 3 mph 1018.2mb 59f 56f
12:54 2 3 mph 1018.3mb 59f 56f
12:48 3 5 mph 1018.4mb 59f 56f
12:42 2
mph
1018.3mb 59f 56f
12:36 2 3 mph 1018.3mb 59f 57f
12:30 2 3 mph 1018.2mb 59f 57f
12:24 2 3 mph 1018.2mb 59f 57f
12:18 3
mph
1018.2mb 59f 57f
12:12 3 5 mph 1018.3mb 59f 57f
12:06 3 5 mph 1018.4mb 59f 57f
12:00 3 5 mph - - -
dom 01/15 11:54 3 6 mph 1018.4mb 59f 57f
11:48 3 5 mph 1018.4mb 59f 58f
11:42 3 6 mph 1018.4mb 59f 58f
11:36 5 6 mph 1018.4mb 59f 58f
11:30 3 5 mph - - -
11:24 5 6 mph 1018.5mb 59f 58f
11:18 3 5 mph 1018.4mb 59f 58f
11:12 3
mph
1018.4mb 59f 58f
11:06 3 6 mph 1018.5mb 59f 58f
11:00 5 7 mph 1018.4mb 59f 58f
10:54 5 6 mph 1018.4mb 59f 58f
10:48 6 7 mph 1018.5mb 59f 58f
10:42 5 7 mph 1018.6mb - -
10:36 3 7 mph 1018.6mb - -
10:30 6 8 mph 1018.6mb - -
10:24 5 7 mph 1018.6mb 59f 58f
10:18 3 6 mph 1018.6mb 59f 58f
10:12 3 6 mph 1018.6mb 59f 58f
10:06 5 7 mph 1018.7mb 59f 58f
10:00 5 7 mph 1018.6mb 59f 58f
9:54 6 7 mph 1018.5mb 59f 58f
9:48 5 7 mph 1018.5mb 59f 58f
9:42 6 7 mph 1018.5mb 59f 58f
9:36 5 7 mph 1018.5mb 59f 58f
9:30 6 7 mph 1018.6mb 59f 58f
9:24 5 6 mph 1018.6mb 59f 58f
9:18 5 7 mph 1018.5mb 59f 58f
9:12 6 8 mph 1018.4mb 59f 58f
9:06 7 8 mph 1018.4mb 59f 58f
9:00 5 7 mph - - -
8:54 6 7 mph 1018.4mb 59f 58f
8:48 5 6 mph 1018.3mb 59f 58f
8:42 3 7 mph 1018.3mb 59f 58f
8:36 6 7 mph 1018.3mb 59f 58f
8:30 5 7 mph 1018.4mb 59f 58f
8:24 3 6 mph 1018.4mb 59f 59f
8:18 5 6 mph 1018.4mb 59f 58f
8:12 5 6 mph 1018.3mb 59f 58f
8:06 5 6 mph 1018.2mb 59f 58f
8:00 5 6 mph 1018.3mb 59f 58f
7:54 5 6 mph 1018.3mb 59f 58f
7:48 3 5 mph 1018.3mb 59f 58f
7:42 5 7 mph 1018.2mb 59f 58f
7:36 5 6 mph 1018.2mb 59f 58f
7:30 5 6 mph 1018.1mb 59f 58f
7:24 5 7 mph 1018.1mb 59f 58f
7:18 5 6 mph 1018mb 59f 58f
7:12 3 6 mph 1017.9mb 59f 58f
7:06 5 6 mph 1017.9mb 59f 58f
7:00 3 5 mph 1017.9mb 59f -
6:54 3 5 mph 1017.9mb 59f 58f
6:48 1 2 mph 1017.9mb 59f 58f
6:42 2
mph
1017.9mb 59f 58f
6:36  -  1 mph 1017.8mb 59f 58f
6:30 1
mph
1017.8mb 59f 58f
6:24  -  mph 1017.7mb 59f 58f
6:18  -  1 mph 1017.6mb 59f 59f
6:12 1 2 mph 1017.6mb 59f 59f
6:06 2
mph
1017.5mb 59f 59f
6:00 2 3 mph 1017.6mb 59f 59f
5:54 2 5 mph 1017.5mb 59f 59f
5:48 5 6 mph - - -
5:42 2 3 mph 1017.4mb 59f 60f
5:36 5 6 mph 1017.3mb 59f 60f
5:30 3 6 mph 1017.2mb 59f 59f
5:24 3 5 mph 1017.2mb 59f 59f
5:18 5 7 mph - - -
5:12 6 10 mph 1017.1mb 59f 60f
5:06 7 10 mph 1017mb 59f 59f
5:00 5 7 mph 1017mb 59f 60f
4:54 7 8 mph 1016.9mb 59f 60f
4:48 7 9 mph 1016.9mb 59f 60f
4:42 7 8 mph 1017mb 59f 60f
4:36 7 9 mph 1016.9mb 59f 60f
4:30 8 13 mph 1016.8mb 59f -
4:24 11 15 mph 1016.8mb 59f 61f
4:18 10 14 mph 1016.8mb 59f 61f
4:12 9 11 mph 1016.9mb 59f 61f
4:06 8 14 mph 1016.9mb 59f 61f
4:00 10 15 mph 1016.9mb - -
3:54 13 15 mph 1016.8mb 59f 62f
3:48 14 15 mph 1016.7mb 59f 60f
3:42 10 14 mph 1016.7mb 59f 60f
3:36 13 14 mph 1016.7mb 59f 60f
3:30 13 15 mph 1016.7mb 59f 60f
3:24 14 16 mph 1016.6mb 59f 60f
3:18 13 16 mph 1016.7mb 59f 60f
3:12 13 15 mph 1016.7mb 59f 60f
3:06 13 15 mph 1016.7mb 59f 60f
3:00 11 16 mph 1016.7mb 59f -
2:54 14 16 mph 1016.7mb 59f 60f
2:48 14 17 mph 1016.6mb 59f 60f
2:42 13 14 mph 1016.6mb 59f 60f
2:36 11 14 mph 1016.7mb 59f 60f
2:30 11 15 mph 1016.7mb 59f 61f
2:24 10 14 mph 1016.6mb 59f 61f
2:18 11 13 mph 1016.6mb 59f 62f
2:12 13 14 mph 1016.6mb 59f 62f
2:06 9 14 mph 1016.6mb 59f 63f
2:00 9 15 mph 1016.6mb 59f -
1:54 11 15 mph 1016.7mb 59f 62f
1:48 9 14 mph 1016.7mb 59f 62f
1:42 9 13 mph 1016.7mb 59f 62f
1:36 9 11 mph 1016.7mb 59f 62f
1:30 9 11 mph 1016.7mb 59f 61f
1:24 8 11 mph 1016.7mb 59f 62f
1:18 11 13 mph 1016.8mb 59f 61f
1:12 8 10 mph 1016.8mb 59f 61f
1:06 8 11 mph 1016.9mb 59f 61f
1:00 8 13 mph 1017mb 59f 61f
12:54 8 11 mph 1017mb 59f 61f
12:48 10 11 mph 1017.1mb 59f 61f
12:42 9 13 mph 1017.2mb 59f 61f
12:36 9 14 mph 1017.3mb 59f 61f
12:30 11 15 mph 1017.3mb 59f 61f
12:24 8 13 mph 1017.4mb 59f 61f
12:18 6 11 mph 1017.4mb - -
12:12 8 11 mph 1017.5mb 59f 60f
12:06 8 14 mph 1017.6mb 59f 60f
12:00 10 13 mph 1017.8mb - -
11:54 9 13 mph 1017.9mb 59f 60f
11:48 7 9 mph 1018mb 59f 60f
11:42 9 10 mph 1018.1mb 59f 60f
11:36 8 11 mph 1018.2mb 59f 60f
11:30 9 11 mph 1018.3mb - -
11:24 9 11 mph 1018.5mb 59f 60f
11:18 9 11 mph 1018.6mb 59f 60f
11:12 7 11 mph 1018.7mb 59f 60f
11:06 8 11 mph 1018.7mb 59f 60f
11:00 6 11 mph 1018.7mb 59f 60f
10:54 7 10 mph 1018.8mb 59f 60f
10:48 8 10 mph 1018.9mb 59f 59f
10:42 9 11 mph 1018.9mb - -
10:36 9 14 mph 1019mb 59f 59f
10:30 7 14 mph 1019.1mb 59f 59f
10:24 9 13 mph 1019.1mb 59f 59f
10:18 9 10 mph 1019mb 59f 59f
10:12 9 11 mph 1019mb 59f 59f
10:06 8 10 mph 1019mb 59f 58f
10:00 8 11 mph - - -
9:54 10 14 mph 1019mb 59f 58f
9:48 10 14 mph 1018.9mb 59f 58f
9:42 11 13 mph 1018.8mb 59f 58f
9:36 8 11 mph 1018.7mb 59f 58f
9:30 6 10 mph 1018.7mb 59f 58f
9:24 8 11 mph 1018.6mb 59f 57f
9:18 7 10 mph 1018.6mb 59f 57f
9:12 8 13 mph 1018.5mb 59f 57f
9:06 7 11 mph 1018.5mb 59f 57f
9:00 8 11 mph 1018.4mb 59f 57f
8:54 9 11 mph 1018.3mb 59f 57f
8:48 6 11 mph 1018.2mb 59f 57f
8:42 7 9 mph 1018.2mb 59f 57f
8:36 8 13 mph 1018.1mb 59f 56f
8:30 8 11 mph 1018.1mb 59f 56f
8:24 8 11 mph 1018mb 59f 56f
8:18 8 9 mph 1018mb 59f 56f
8:12 7 10 mph 1018mb 59f 56f
8:06 9 11 mph 1017.9mb 59f 56f
8:00 8 10 mph 1017.8mb 59f 56f
7:54 7 10 mph 1017.8mb 59f 56f
7:48 8 10 mph 1017.7mb 59f 56f
7:42 7 9 mph 1017.7mb 59f 56f
7:36 7 10 mph 1017.7mb 59f 56f
7:30 7 10 mph 1017.6mb 59f 56f
7:24 6 9 mph 1017.7mb 59f 56f
7:18 7 9 mph 1017.6mb 59f 56f
7:12 7 8 mph 1017.6mb 59f 56f
7:06 7 9 mph 1017.5mb 59f 56f
7:00 7 9 mph - - -
6:54 6 9 mph 1017.4mb 59f 56f
6:48 6 8 mph 1017.3mb 59f 55f
6:42 6 8 mph 1017.3mb 59f 55f
6:36 7 8 mph 1017.2mb 59f 55f
6:30 6 9 mph 1017.2mb 59f 55f
6:24 6 8 mph 1017.2mb 59f 55f
6:18 5 7 mph 1017.1mb 59f 55f
6:12 6 9 mph 1017.1mb 59f 55f
6:06 6 8 mph 1017mb 59f 55f
6:00 5 8 mph 1016.9mb 59f 55f
5:54 6 8 mph 1016.9mb 58f 55f
5:48 5 7 mph 1016.9mb 58f 55f
5:42 3 8 mph 1016.9mb 58f 55f
5:36 5 6 mph 1016.9mb 58f 55f
5:30 6 7 mph 1016.9mb 58f 55f
5:24 5 7 mph 1016.9mb 58f 55f
5:18 6 9 mph 1016.8mb 58f 55f
5:12 6 9 mph 1016.7mb 58f 55f
5:06 6 10 mph 1016.7mb 58f 55f
5:00 6 10 mph 1016.7mb 58f 55f
4:54 8 10 mph 1016.6mb 58f 55f
4:48 5 7 mph 1016.6mb 58f 55f